Runwaykonfiguration

There is 1 reply in this Thread. The last Post () by Airbus-Aktuell.

  • EDDH/HAM am 05.08.2020 - 08365


    Hamburg, Deutschland

    Breite: 53-38N, Länge: 010-00E, Höhe: 16 m


    Start- und Landebahnen

    05/23 3250 m × 46 m Asphalt

    15/33 3666 m × 46 m Asphalt


    Landing : 23


    Takeoff : 33


    Gruß


    Helmut


    Die Termine für die Bahnsperrungen 2020:

    Pisten 15/33 (Norderstedt/Alsterdorf) von Mi. den 02.09.2020, 06:00 Uhr (Betriebsanfang), bis Mi. 16.09.2020, 23:00 Uhr (Betriebsende)


    Data at: 0634 UTC 05 Aug 2020

    METAR for: EDDH (Hamburg Arpt, --, DL)

    Text: EDDH 050620Z 16008KT CAVOK 17/11 Q1016 NOSIG

    Temperature: 17.0°C ( 63°F)

    Dewpoint: 11.0°C ( 52°F) [RH = 68%]

    Pressure (altimeter): 30.00 inches Hg (1016.0 mb)

    Winds: from the SSE (160 degrees) at 9 MPH (8 knots; 4.1 m/s)

    Visibility: 6 or more sm (10+ km)

    Ceiling: ceiling and visibility are OK

    Clouds: unknown


    TAF for: EDDH (Hamburg Arpt, --, DL) issued at 0500 UTC 05 Aug 2020

    Text: TAF EDDH 050500Z 0506/0612 20011G21KT CAVOK

    Forecast period: 0600 to 1600 UTC 05 August 2020

    Forecast type: FROM: standard forecast or significant change

    Winds: from the SSW (200 degrees) at 13 MPH (11 knots; 5.7 m/s) gusting to 24 MPH (21 knots; 10.8 m/s)

    Visibility: 6 or more sm (10+ km)

    Clouds: missing

    Weather: NSW (no significant weather)

    Text: BECMG 0516/0518 13004KT

    Forecast period: 1600 UTC 05 August 2020 to 0600 UTC 06 August 2020

    Forecast type: BECOMING: Conditions expected to become as follows by 1800 UTC 05 August 2020

    Winds: from the SE (130 degrees) at 5 MPH (4 knots; 2.1 m/s)

    Visibility: 6 or more sm (10+ km)

    Clouds: missing

    Weather: NSW (no significant weather)

    Text: BECMG 0606/0608 17009KT

    Forecast period: 0600 to 1200 UTC 06 August 2020

    Forecast type: BECOMING: Conditions expected to become as follows by 0800 UTC 06 August 2020

    Winds: from the S (170 degrees) at 10 MPH (9 knots; 4.6 m/s)

    Visibility: 6 or more sm (10+ km)

    Clouds: missing

    Weather: NSW (no significant weather)


    Zeit: 08:35 (06:35 UTC)

    Prognose

    Neuester Wetterbericht von vor 1 Stunde und 35 Minuten, um 05:00 UTC
    Gültige Prognose vom 05 um 06 UTC bis 06 um 12 UTC
    Wind 11 kt aus Süd/Südwest, Böen bis zu 21 kt
    Sichtweite 10 km oder mehr
    keine Wolken unter 1500 m und keine Kumulonimbus oder Gewitterwolken
    Übergehend zu

    vom 05 um 16 UTC bis 05 um 18 UTC

    Wind 4 kt aus Südost
    Übergehend zu

    vom 06 um 06 UTC bis 06 um 08 UTC

    Wind 9 kt aus Süd

    TAF: EDDH 050500Z 0506/0612 20011G21KT CAVOK BECMG 0516/0518 13004KT BECMG 0606/0608 17009KT

    Es gibt alte Piloten, und es gibt kühne Piloten,
    aber es gibt keine alten kühnen Piloten


    André Kostolany

Comments